Time;durP1;ratioP1;P1;durP2;ratioP2;P2;SDS_P1;SDS_P2;PMS_P1;PMS_P2;Temp;Humidity;BMP_temperature;BMP_pressure;BME280_temperature;BME280_humidity;BME280_pressure;Samples;Min_cycle;Max_cycle;Signal;HPM_P1;HPM_P2
2021/09/06 00:01:39;;;;;;;9.30;4.60;;;;;;;5.28;80.04;101663.86;95306;1180;81767;-59
2021/09/06 00:03:49;;;;;;;7.70;4.20;;;;;;;5.27;80.07;101664.69;95303;1180;99231;-63
2021/09/06 00:05:57;;;;;;;6.50;4.40;;;;;;;5.28;80.02;101669.96;95333;1180;88366;-63
2021/09/06 00:08:08;;;;;;;6.00;4.30;;;;;;;5.28;80.20;101670.35;95237;1180;92555;-59
2021/09/06 00:10:37;;;;;;;7.60;4.50;;;;;;;5.26;80.17;101667.44;95309;1180;79206;-59
2021/09/06 00:12:45;;;;;;;6.60;4.60;;;;;;;5.24;80.25;101666.15;95341;1180;80564;-63
2021/09/06 00:14:53;;;;;;;8.50;4.00;;;;;;;5.23;80.37;101668.63;95283;1180;97820;-63
2021/09/06 00:17:01;;;;;;;8.40;4.30;;;;;;;5.21;80.21;101670.42;95322;1180;86658;-62
2021/09/06 00:19:11;;;;;;;8.20;4.10;;;;;;;5.18;80.27;101676.17;95272;1180;93113;-63
2021/09/06 00:21:19;;;;;;;8.60;4.90;;;;;;;5.15;80.22;101676.91;95309;1180;79406;-63
2021/09/06 00:23:28;;;;;;;8.50;4.40;;;;;;;5.15;80.17;101679.26;95332;1180;82053;-59
2021/09/06 00:25:35;;;;;;;7.90;4.50;;;;;;;5.14;80.26;101676.49;95295;1180;98650;-59
2021/09/06 00:27:43;;;;;;;6.10;3.90;;;;;;;5.13;80.29;101677.45;95300;1180;87385;-59
2021/09/06 00:29:53;;;;;;;7.60;4.20;;;;;;;5.12;80.49;101681.98;95308;1180;94258;-59
2021/09/06 00:32:03;;;;;;;6.50;3.80;;;;;;;5.11;80.28;101679.45;95330;1180;79757;-60
2021/09/06 00:34:12;;;;;;;6.00;4.20;;;;;;;5.11;80.26;101678.91;95330;1180;82189;-59
2021/09/06 00:36:19;;;;;;;7.00;4.30;;;;;;;5.09;80.39;101677.10;95291;1180;98820;-59
2021/09/06 00:38:27;;;;;;;6.30;4.10;;;;;;;5.06;80.35;101681.23;95316;1180;86947;-63
2021/09/06 00:40:35;;;;;;;7.30;4.10;;;;;;;5.03;80.42;101679.66;95322;1180;94430;-63
2021/09/06 00:42:43;;;;;;;8.20;4.20;;;;;;;5.00;80.44;101677.09;95285;1180;79086;-59
2021/09/06 00:44:51;;;;;;;7.70;5.00;;;;;;;4.98;80.44;101677.60;95331;1180;81147;-59
2021/09/06 00:47:00;;;;;;;7.70;4.30;;;;;;;4.94;80.41;101677.23;95315;1180;98424;-63
2021/09/06 00:49:10;;;;;;;7.60;4.60;;;;;;;4.92;80.54;101676.70;95304;1180;87328;-63
2021/09/06 00:51:18;;;;;;;4.80;3.40;;;;;;;4.90;80.58;101685.05;95305;1180;94358;-63
2021/09/06 00:53:26;;;;;;;6.10;4.40;;;;;;;4.89;80.58;101682.41;95298;1180;80782;-63
2021/09/06 00:55:34;;;;;;;6.50;4.50;;;;;;;4.89;80.48;101684.02;95311;1180;81402;-63
2021/09/06 00:57:45;;;;;;;7.00;4.20;;;;;;;4.90;80.55;101686.12;95308;1180;98897;-63
2021/09/06 00:59:53;;;;;;;6.80;4.30;;;;;;;4.88;80.57;101687.55;95318;1180;88190;-64
2021/09/06 01:02:01;;;;;;;6.80;4.20;;;;;;;4.85;80.73;101685.09;95249;1180;93742;-63
2021/09/06 01:04:09;;;;;;;6.90;4.60;;;;;;;4.82;80.79;101687.13;95298;1180;80955;-63
2021/09/06 01:06:20;;;;;;;6.80;4.00;;;;;;;4.80;80.64;101682.48;95307;1180;80914;-64
2021/09/06 01:08:28;;;;;;;6.10;4.30;;;;;;;4.80;80.71;101684.46;95314;1180;99280;-59
2021/09/06 01:10:36;;;;;;;6.10;4.30;;;;;;;4.78;80.78;101682.84;95319;1180;87654;-59
2021/09/06 01:12:45;;;;;;;6.90;4.10;;;;;;;4.75;80.82;101680.52;95231;1180;94632;-59
2021/09/06 01:14:52;;;;;;;9.60;4.60;;;;;;;4.74;80.74;101684.16;95308;1180;79683;-59
2021/09/06 01:17:03;;;;;;;6.30;4.20;;;;;;;4.74;80.76;101683.27;95299;1180;82730;-59
2021/09/06 01:19:13;;;;;;;8.70;4.40;;;;;;;4.73;80.75;101686.19;95310;1180;97696;-59
2021/09/06 01:21:21;;;;;;;5.90;4.50;;;;;;;4.73;81.00;101683.87;95327;1180;87011;-59
2021/09/06 01:23:28;;;;;;;9.20;4.70;;;;;;;4.70;80.98;101683.94;95324;1180;93771;-64
2021/09/06 01:25:36;;;;;;;6.40;4.00;;;;;;;4.68;80.91;101685.35;95325;1181;78570;-64
2021/09/06 01:27:48;;;;;;;9.00;5.10;;;;;;;4.66;80.88;101687.67;95307;1180;81500;-59
2021/09/06 01:29:56;;;;;;;7.70;4.40;;;;;;;4.62;80.91;101685.48;95290;1180;98616;-60
2021/09/06 01:32:08;;;;;;;8.40;4.70;;;;;;;4.59;80.83;101683.22;95349;1180;87433;-65
2021/09/06 01:34:16;;;;;;;6.70;4.50;;;;;;;4.54;81.04;101683.98;95313;1180;92897;-66
2021/09/06 01:36:23;;;;;;;6.80;4.40;;;;;;;4.50;80.97;101683.23;95302;1180;78261;-64
2021/09/06 01:38:33;;;;;;;7.70;5.10;;;;;;;4.48;80.94;101685.52;95333;1180;80646;-64
2021/09/06 01:40:41;;;;;;;8.90;4.50;;;;;;;4.47;80.91;101682.05;95298;1180;98494;-65
2021/09/06 01:42:48;;;;;;;8.70;5.30;;;;;;;4.45;80.99;101685.44;95345;1180;87033;-65
2021/09/06 01:44:56;;;;;;;8.10;4.70;;;;;;;4.43;80.91;101687.33;95251;1180;93972;-65
2021/09/06 01:47:04;;;;;;;7.60;4.70;;;;;;;4.44;81.08;101685.17;95275;1180;79288;-65
2021/09/06 01:49:12;;;;;;;6.90;4.60;;;;;;;4.42;81.23;101685.79;95321;1180;82224;-65
2021/09/06 01:51:19;;;;;;;8.20;5.10;;;;;;;4.42;81.16;101688.49;95325;1180;97080;-65
2021/09/06 01:53:27;;;;;;;6.70;4.30;;;;;;;4.42;81.18;101684.61;95286;1180;87720;-65
2021/09/06 01:55:34;;;;;;;8.40;4.80;;;;;;;4.41;81.22;101684.48;95334;1180;94639;-65
2021/09/06 01:57:42;;;;;;;11.20;5.00;;;;;;;4.41;81.36;101680.37;95268;1180;78983;-60
2021/09/06 01:59:49;;;;;;;9.60;4.60;;;;;;;4.40;81.28;101682.91;95288;1180;80441;-60
2021/09/06 02:01:57;;;;;;;8.10;4.80;;;;;;;4.39;81.29;101683.91;95285;1180;99667;-64
2021/09/06 02:04:04;;;;;;;9.00;4.70;;;;;;;4.38;81.36;101687.17;95279;1180;88187;-65
2021/09/06 02:06:12;;;;;;;8.20;5.30;;;;;;;4.37;81.42;101687.86;95286;1180;93840;-65
2021/09/06 02:08:20;;;;;;;7.50;4.40;;;;;;;4.36;81.33;101690.92;95300;1180;81525;-60
2021/09/06 02:10:28;;;;;;;9.30;5.00;;;;;;;4.37;81.26;101692.81;95318;1180;81329;-60
2021/09/06 02:12:36;;;;;;;8.80;5.00;;;;;;;4.36;81.36;101692.20;95318;1180;98660;-64
2021/09/06 02:14:43;;;;;;;7.00;4.50;;;;;;;4.32;81.30;101692.83;95315;1180;87931;-65
2021/09/06 02:16:54;;;;;;;7.90;3.80;;;;;;;4.30;81.18;101693.36;95302;1180;95002;-64
2021/09/06 02:19:01;;;;;;;6.50;4.10;;;;;;;4.26;81.22;101693.86;95302;1180;78498;-60
2021/09/06 02:21:09;;;;;;;8.40;4.60;;;;;;;4.25;81.33;101689.50;95359;1180;81200;-60
2021/09/06 02:23:17;;;;;;;8.70;4.30;;;;;;;4.22;81.29;101688.85;95308;1180;99544;-59
2021/09/06 02:25:25;;;;;;;7.30;4.40;;;;;;;4.18;81.37;101687.34;95304;1180;87158;-60
2021/09/06 02:27:32;;;;;;;9.80;4.70;;;;;;;4.15;81.44;101685.52;95284;1180;93855;-65
2021/09/06 02:29:40;;;;;;;6.80;4.30;;;;;;;4.15;81.49;101684.48;95302;1180;80236;-65
2021/09/06 02:31:48;;;;;;;7.70;5.20;;;;;;;4.15;81.41;101682.92;95307;1180;80624;-65
2021/09/06 02:33:56;;;;;;;8.60;4.40;;;;;;;4.13;81.41;101685.36;95331;1180;97934;-65
2021/09/06 02:36:03;;;;;;;8.50;4.80;;;;;;;4.13;81.49;101681.77;95302;1180;87662;-65
2021/09/06 02:38:11;;;;;;;7.50;4.80;;;;;;;4.14;81.52;101684.04;95294;1180;94161;-60
2021/09/06 02:40:20;;;;;;;8.80;5.40;;;;;;;4.13;81.54;101680.92;95300;1180;80226;-60
2021/09/06 02:42:28;;;;;;;8.40;5.60;;;;;;;4.10;81.46;101681.85;95306;1180;82343;-60
2021/09/06 02:44:35;;;;;;;8.70;4.90;;;;;;;4.07;81.59;101685.84;95291;1180;98537;-59
2021/09/06 02:46:43;;;;;;;8.90;5.70;;;;;;;4.07;81.58;101683.91;95333;1180;87992;-60
2021/09/06 02:48:52;;;;;;;8.70;5.00;;;;;;;4.06;81.69;101684.65;95266;1180;94458;-60
2021/09/06 02:50:59;;;;;;;7.70;5.40;;;;;;;4.04;81.69;101685.02;95310;1180;79663;-60
2021/09/06 02:53:07;;;;;;;8.60;5.40;;;;;;;4.03;81.72;101679.05;95269;1180;82830;-65
2021/09/06 02:55:15;;;;;;;9.60;5.90;;;;;;;4.03;81.76;101681.17;95297;1180;98212;-65
2021/09/06 02:57:22;;;;;;;8.00;5.40;;;;;;;4.03;81.78;101682.38;95313;1180;88374;-60
2021/09/06 02:59:30;;;;;;;9.20;5.30;;;;;;;4.03;81.71;101684.76;95316;1180;93845;-59
2021/09/06 03:01:37;;;;;;;8.90;4.90;;;;;;;4.01;81.64;101683.96;95296;1180;79868;-59
2021/09/06 03:03:45;;;;;;;8.20;5.50;;;;;;;3.98;81.70;101683.65;95310;1180;81854;-65
2021/09/06 03:05:52;;;;;;;9.70;6.60;;;;;;;3.97;81.90;101683.77;95315;1180;99118;-65
2021/09/06 03:08:00;;;;;;;10.90;6.40;;;;;;;3.97;82.03;101683.59;95300;1180;87625;-59
2021/09/06 03:10:13;;;;;;;10.20;5.80;;;;;;;3.95;81.76;101684.23;95311;1180;93845;-60
2021/09/06 03:12:20;;;;;;;10.20;5.90;;;;;;;3.94;81.84;101678.12;95305;1180;79625;-65
2021/09/06 03:14:31;;;;;;;8.80;5.90;;;;;;;3.96;82.00;101676.73;95328;1180;80556;-65
2021/09/06 03:16:38;;;;;;;9.80;5.90;;;;;;;3.95;82.11;101677.66;95314;1180;97902;-68
2021/09/06 03:18:46;;;;;;;9.40;6.50;;;;;;;3.93;82.16;101674.30;95322;1180;87941;-59
2021/09/06 03:20:54;;;;;;;9.20;6.00;;;;;;;3.91;82.09;101670.32;95289;1180;93855;-60
2021/09/06 03:23:02;;;;;;;8.90;5.60;;;;;;;3.89;82.16;101667.56;95283;1180;79009;-65
2021/09/06 03:25:11;;;;;;;8.00;5.60;;;;;;;3.89;82.13;101665.65;95292;1180;81525;-65
2021/09/06 03:27:19;;;;;;;9.70;6.60;;;;;;;3.88;82.07;101667.20;95309;1180;98378;-65
2021/09/06 03:29:26;;;;;;;8.00;5.80;;;;;;;3.87;82.22;101666.02;95290;1180;87339;-65
2021/09/06 03:31:34;;;;;;;10.00;6.20;;;;;;;3.86;81.95;101665.37;95286;1180;94458;-65
2021/09/06 03:33:42;;;;;;;8.90;6.20;;;;;;;3.84;82.03;101661.57;95291;1180;81038;-65
2021/09/06 03:35:50;;;;;;;10.50;5.30;;;;;;;3.83;82.01;101662.37;95295;1180;80749;-65
2021/09/06 03:38:00;;;;;;;8.30;6.10;;;;;;;3.79;81.92;101659.48;95299;1180;99081;-65
2021/09/06 03:40:10;;;;;;;10.20;5.90;;;;;;;3.76;81.91;101657.90;95353;1180;87875;-65
2021/09/06 03:42:18;;;;;;;10.00;5.60;;;;;;;3.77;81.94;101659.77;95331;1180;94165;-65
2021/09/06 03:44:26;;;;;;;8.30;5.30;;;;;;;3.75;82.09;101660.33;95276;1180;79999;-65
2021/09/06 03:46:33;;;;;;;12.20;6.30;;;;;;;3.73;82.01;101657.98;95306;1180;81757;-65
2021/09/06 03:48:41;;;;;;;9.90;6.20;;;;;;;3.74;82.15;101663.45;95323;1180;98896;-65
2021/09/06 03:50:48;;;;;;;11.90;5.90;;;;;;;3.75;82.14;101666.03;95320;1180;86533;-65
2021/09/06 03:52:56;;;;;;;10.10;5.90;;;;;;;3.77;82.06;101667.64;95316;1179;94774;-60
2021/09/06 03:55:11;;;;;;;12.50;7.10;;;;;;;3.75;82.27;101663.19;95280;1180;79490;-60
2021/09/06 03:57:18;;;;;;;12.80;6.70;;;;;;;3.75;82.09;101669.21;95338;1180;81402;-65
2021/09/06 03:59:28;;;;;;;15.90;6.70;;;;;;;3.76;82.06;101666.27;95309;1180;98916;-65
2021/09/06 04:01:36;;;;;;;10.70;6.20;;;;;;;3.76;82.13;101669.16;95308;1180;87795;-63
2021/09/06 04:03:44;;;;;;;10.50;6.10;;;;;;;3.77;82.23;101668.39;95268;1180;94559;-64
2021/09/06 04:05:54;;;;;;;8.10;5.90;;;;;;;3.80;82.18;101672.27;95304;1180;80086;-63
2021/09/06 04:08:02;;;;;;;9.10;5.80;;;;;;;3.80;82.26;101671.54;95326;1180;81386;-59
2021/09/06 04:10:12;;;;;;;11.00;6.20;;;;;;;3.74;82.29;101669.45;95300;1180;97676;-59
2021/09/06 04:12:20;;;;;;;12.20;5.90;;;;;;;3.71;82.26;101670.41;95332;1180;89121;-64
2021/09/06 04:14:27;;;;;;;9.20;5.80;;;;;;;3.71;82.33;101671.14;95313;1180;94859;-64
2021/09/06 04:16:35;;;;;;;7.90;6.10;;;;;;;3.73;82.39;101671.36;95262;1180;80681;-64
2021/09/06 04:18:43;;;;;;;9.90;5.70;;;;;;;3.76;82.23;101675.73;95360;1180;80964;-59
2021/09/06 04:20:50;;;;;;;8.90;5.90;;;;;;;3.78;82.20;101677.02;95300;1180;96845;-59
2021/09/06 04:22:58;;;;;;;10.00;6.50;;;;;;;3.82;82.45;101677.41;95337;1180;88224;-63
2021/09/06 04:25:07;;;;;;;9.90;6.10;;;;;;;3.85;82.54;101681.30;95271;1180;94544;-63
2021/09/06 04:27:15;;;;;;;11.00;5.60;;;;;;;3.88;82.36;101679.64;95295;1180;81066;-59
2021/09/06 04:29:26;;;;;;;7.50;5.40;;;;;;;3.93;82.50;101685.27;95269;1180;81591;-60
2021/09/06 04:31:37;;;;;;;9.60;6.20;;;;;;;3.98;82.58;101685.13;95286;1180;98513;-59
2021/09/06 04:33:44;;;;;;;9.00;6.20;;;;;;;4.03;82.59;101686.35;95330;1180;89435;-63
2021/09/06 04:35:55;;;;;;;10.50;6.40;;;;;;;4.08;82.75;101683.80;95309;1180;94928;-63
2021/09/06 04:38:03;;;;;;;10.40;6.90;;;;;;;4.13;82.70;101685.34;95273;1180;80421;-63
2021/09/06 04:40:14;;;;;;;9.60;6.00;;;;;;;4.24;82.67;101689.04;95333;1180;81881;-63
2021/09/06 04:42:21;;;;;;;10.60;6.50;;;;;;;4.84;82.76;101680.85;95310;1180;99026;-59
2021/09/06 04:44:29;;;;;;;11.80;6.50;;;;;;;5.36;81.83;101677.34;95336;1180;88546;-59
2021/09/06 04:46:38;;;;;;;11.50;7.00;;;;;;;5.33;81.60;101678.16;95292;1180;94287;-59
2021/09/06 04:48:46;;;;;;;10.70;6.00;;;;;;;5.32;81.56;101682.17;95270;1180;81466;-63
2021/09/06 04:50:53;;;;;;;12.80;6.60;;;;;;;5.42;81.67;101683.52;95294;1180;80364;-63
2021/09/06 04:53:01;;;;;;;14.40;7.60;;;;;;;5.43;81.48;101683.05;95309;1180;99011;-59
2021/09/06 04:55:10;;;;;;;11.90;7.20;;;;;;;5.43;81.74;101684.49;95327;1180;87402;-60
2021/09/06 04:57:18;;;;;;;10.80;6.70;;;;;;;5.45;81.92;101683.98;95286;1180;94400;-62
2021/09/06 04:59:26;;;;;;;12.70;7.00;;;;;;;5.51;81.93;101687.57;95269;1180;81542;-62
2021/09/06 05:01:33;;;;;;;15.50;6.90;;;;;;;5.57;82.02;101694.45;95308;1180;81174;-61
2021/09/06 05:03:41;;;;;;;12.40;6.70;;;;;;;5.65;81.92;101695.52;95299;1180;98401;-62
2021/09/06 05:05:49;;;;;;;15.90;8.30;;;;;;;5.74;82.17;101697.78;95316;1180;89227;-62
2021/09/06 05:07:56;;;;;;;12.20;7.40;;;;;;;5.84;82.12;101694.48;95316;1180;94529;-68
2021/09/06 05:10:05;;;;;;;14.20;8.90;;;;;;;5.92;82.31;101696.48;95262;1180;80123;-67
2021/09/06 05:12:13;;;;;;;17.40;9.80;;;;;;;6.02;82.14;101693.89;95367;1180;82029;-62
2021/09/06 05:14:21;;;;;;;18.10;8.20;;;;;;;6.09;82.27;101692.42;95302;1180;98164;-61
2021/09/06 05:16:28;;;;;;;17.30;9.70;;;;;;;6.21;82.33;101691.92;95304;1180;87823;-73
2021/09/06 05:18:36;;;;;;;19.50;10.00;;;;;;;6.47;82.73;101688.88;95344;1179;94145;-62
2021/09/06 05:20:44;;;;;;;21.00;10.00;;;;;;;7.64;84.09;101691.55;95289;1180;79817;-63
2021/09/06 05:22:55;;;;;;;27.00;12.40;;;;;;;9.29;84.09;101687.89;95314;1180;81662;-70
2021/09/06 05:25:08;;;;;;;23.10;11.40;;;;;;;10.06;82.45;101684.43;95352;1180;98538;-70
2021/09/06 05:27:15;;;;;;;21.10;11.50;;;;;;;11.19;80.75;101686.32;95297;1180;87919;-70
2021/09/06 05:29:25;;;;;;;23.20;11.10;;;;;;;12.40;79.03;101683.96;95272;1180;93824;-69
2021/09/06 05:31:33;;;;;;;18.50;10.60;;;;;;;13.31;77.56;101683.91;95328;1180;79047;-69
2021/09/06 05:33:44;;;;;;;23.70;11.40;;;;;;;13.42;75.66;101683.44;95296;1180;81082;-69
2021/09/06 05:35:53;;;;;;;22.00;12.70;;;;;;;13.05;74.67;101687.80;95327;1180;99138;-66
2021/09/06 05:38:00;;;;;;;25.60;12.50;;;;;;;12.46;74.08;101689.46;95329;1180;87966;-67
2021/09/06 05:40:11;;;;;;;22.40;12.40;;;;;;;11.85;74.07;101693.52;95313;1180;94348;-66
2021/09/06 05:42:19;;;;;;;22.00;12.20;;;;;;;11.34;74.32;101689.98;95296;1180;78533;-60
2021/09/06 05:44:27;;;;;;;22.70;11.80;;;;;;;10.95;74.64;101691.45;95295;1180;81694;-60
2021/09/06 05:46:35;;;;;;;23.70;12.70;;;;;;;10.71;74.81;101689.61;95312;1180;98699;-62
2021/09/06 05:48:43;;;;;;;20.50;11.50;;;;;;;10.55;75.03;101691.48;95288;1180;88212;-64
2021/09/06 05:50:50;;;;;;;22.00;11.20;;;;;;;10.44;75.18;101691.38;95345;1180;94173;-64
2021/09/06 05:52:58;;;;;;;18.80;11.00;;;;;;;10.38;75.50;101690.21;95264;1180;81138;-62
2021/09/06 05:55:10;;;;;;;15.10;10.10;;;;;;;10.36;75.73;101693.12;95296;1180;82000;-62
2021/09/06 05:57:18;;;;;;;17.20;10.60;;;;;;;10.46;75.68;101692.61;95337;1180;97962;-62
2021/09/06 05:59:26;;;;;;;18.90;11.50;;;;;;;10.65;75.71;101698.55;95322;1180;86431;-62
2021/09/06 06:01:36;;;;;;;19.70;11.50;;;;;;;11.58;76.38;101697.13;95306;1180;93805;-61
2021/09/06 06:03:47;;;;;;;17.50;11.30;;;;;;;13.21;76.18;101694.30;95311;1180;79837;-62
2021/09/06 06:05:54;;;;;;;19.40;11.10;;;;;;;13.75;75.34;101693.17;95330;1180;81210;-62
2021/09/06 06:08:02;;;;;;;20.60;11.70;;;;;;;13.69;74.68;101695.29;95292;1180;98785;-62
2021/09/06 06:10:11;;;;;;;23.90;12.60;;;;;;;13.49;73.88;101700.42;95355;1180;87364;-61
2021/09/06 06:12:27;;;;;;;22.60;12.70;;;;;;;13.29;73.67;101702.61;95310;1180;92754;-61
2021/09/06 06:14:37;;;;;;;19.90;12.00;;;;;;;13.12;73.33;101705.14;95345;1180;78009;-61
2021/09/06 06:16:45;;;;;;;20.60;10.10;;;;;;;12.93;73.13;101702.59;95316;1180;81878;-66
2021/09/06 06:18:52;;;;;;;23.20;12.30;;;;;;;12.78;72.84;101706.27;95328;1180;97998;-62
2021/09/06 06:21:00;;;;;;;19.00;11.80;;;;;;;12.71;73.07;101709.39;95319;1180;87632;-62
2021/09/06 06:23:08;;;;;;;18.50;10.70;;;;;;;12.70;73.12;101708.62;95288;1180;94333;-67
2021/09/06 06:25:16;;;;;;;15.60;10.20;;;;;;;12.68;73.03;101708.52;95322;1180;78652;-67
2021/09/06 06:27:23;;;;;;;16.00;9.00;;;;;;;12.72;72.85;101708.96;95335;1180;81382;-66
2021/09/06 06:29:31;;;;;;;16.00;9.00;;;;;;;12.84;72.68;101707.25;95298;1180;100141;-67
2021/09/06 06:31:39;;;;;;;14.60;8.80;;;;;;;12.99;72.79;101715.46;95297;1180;87135;-67
2021/09/06 06:33:46;;;;;;;11.20;7.20;;;;;;;13.02;72.26;101712.22;95292;1180;94540;-68
2021/09/06 06:35:54;;;;;;;10.80;7.10;;;;;;;12.88;71.54;101714.56;95309;1180;77010;-68
2021/09/06 06:38:02;;;;;;;13.90;7.50;;;;;;;12.72;71.11;101717.59;95317;1180;80413;-64
2021/09/06 06:40:14;;;;;;;11.30;7.80;;;;;;;12.70;71.30;101718.77;95327;1180;98933;-64
2021/09/06 06:42:25;;;;;;;14.50;7.70;;;;;;;12.73;71.28;101720.17;95326;1180;86663;-64
2021/09/06 06:44:37;;;;;;;11.80;7.00;;;;;;;12.77;70.98;101720.17;95326;1180;94629;-64
2021/09/06 06:46:48;;;;;;;14.00;7.30;;;;;;;12.77;70.83;101719.57;95341;1180;78757;-68
2021/09/06 06:48:55;;;;;;;11.90;6.60;;;;;;;12.81;70.51;101720.61;95293;1180;80540;-63
2021/09/06 06:53:59;;;;;;;12.30;6.70;;;;;;;12.95;70.83;101725.06;95424;1180;87614;-63
2021/09/06 06:56:11;;;;;;;11.70;6.50;;;;;;;13.11;70.45;101719.42;95265;1180;92150;-61
2021/09/06 06:58:18;;;;;;;11.00;7.10;;;;;;;13.23;70.31;101716.85;95273;1180;78288;-61
2021/09/06 07:00:27;;;;;;;13.00;6.00;;;;;;;13.34;70.29;101722.84;95263;1180;82262;-62
2021/09/06 07:02:34;;;;;;;10.60;7.10;;;;;;;13.43;70.29;101724.38;95250;1180;99857;-70
2021/09/06 07:04:45;;;;;;;13.30;6.30;;;;;;;13.47;70.08;101720.83;95261;1181;86837;-71
2021/09/06 07:06:55;;;;;;;9.70;6.30;;;;;;;13.53;69.74;101725.33;95224;1184;94857;-68
2021/09/06 07:09:06;;;;;;;12.10;6.70;;;;;;;13.63;69.64;101726.88;95258;1181;79746;-70
2021/09/06 07:11:14;;;;;;;11.50;7.10;;;;;;;13.68;69.09;101725.48;95289;1181;81284;-71
2021/09/06 07:13:40;;;;;;;14.30;7.10;;;;;;;14.17;69.62;101721.67;95887;1174;97763;-70
2021/09/06 07:15:48;;;;;;;10.00;6.10;;;;;;;14.60;69.09;101726.83;95318;1180;88223;-68
2021/09/06 07:17:55;;;;;;;9.10;5.90;;;;;;;14.64;67.78;101728.64;95262;1180;94099;-68
2021/09/06 07:20:04;;;;;;;10.70;5.70;;;;;;;14.46;67.33;101733.33;95269;1180;79343;-69
2021/09/06 07:22:14;;;;;;;9.40;5.00;;;;;;;14.37;67.15;101733.95;95246;1180;81499;-69
2021/09/06 07:24:26;;;;;;;9.90;5.80;;;;;;;14.37;67.13;101730.87;95272;1180;98482;-69
2021/09/06 07:26:33;;;;;;;11.30;5.90;;;;;;;14.68;67.34;101729.82;95321;1180;88541;-69
2021/09/06 07:28:41;;;;;;;10.10;5.90;;;;;;;15.11;67.01;101734.16;95243;1180;93696;-70
2021/09/06 07:30:49;;;;;;;9.40;6.00;;;;;;;15.24;65.79;101730.77;95203;1180;80143;-69
2021/09/06 07:32:57;;;;;;;11.00;5.80;;;;;;;15.35;64.97;101728.69;95206;1180;80652;-63
2021/09/06 07:35:06;;;;;;;9.30;5.40;;;;;;;15.30;64.74;101727.45;95209;1180;98281;-63
2021/09/06 07:37:14;;;;;;;10.30;5.60;;;;;;;15.25;64.67;101729.52;95273;1180;86791;-62
2021/09/06 07:39:25;;;;;;;11.90;6.30;;;;;;;15.26;64.73;101728.90;95238;1180;92724;-62
2021/09/06 07:41:36;;;;;;;8.70;5.30;;;;;;;15.18;64.61;101732.84;95105;1182;78334;-62
2021/09/06 07:43:47;;;;;;;9.90;5.70;;;;;;;15.22;64.74;101734.80;95218;1180;82258;-63
2021/09/06 07:45:55;;;;;;;9.00;4.90;;;;;;;15.39;64.70;101729.45;95205;1180;99431;-73
2021/09/06 07:48:02;;;;;;;9.00;6.00;;;;;;;15.43;64.54;101731.14;95277;1180;87645;-67
2021/09/06 07:50:14;;;;;;;8.00;5.50;;;;;;;15.47;63.57;101727.38;95299;1180;93478;-68
2021/09/06 07:52:22;;;;;;;8.20;5.30;;;;;;;15.50;63.53;101732.90;95276;1180;79694;-67
2021/09/06 07:54:30;;;;;;;8.10;4.40;;;;;;;15.70;63.03;101730.36;95198;1180;81008;-69
2021/09/06 07:56:38;;;;;;;8.80;4.60;;;;;;;15.98;62.39;101729.39;95271;1180;98258;-70
2021/09/06 07:58:46;;;;;;;8.20;4.50;;;;;;;15.92;60.61;101724.47;95259;1180;87919;-73
2021/09/06 08:00:54;;;;;;;7.00;3.50;;;;;;;15.99;61.03;101725.43;95259;1180;93210;-73
2021/09/06 08:03:02;;;;;;;9.00;3.80;;;;;;;16.74;60.72;101731.52;95214;1180;79155;-69
2021/09/06 08:05:12;;;;;;;4.30;2.90;;;;;;;18.68;60.94;101722.85;95284;1180;80340;-70
2021/09/06 08:07:20;;;;;;;6.40;3.50;;;;;;;20.87;58.99;101722.95;95243;1180;97624;-67
2021/09/06 08:09:30;;;;;;;6.80;3.20;;;;;;;22.65;57.08;101719.66;95229;1180;88146;-71
2021/09/06 08:14:20;;;;;;;4.40;2.40;;;;;;;25.51;51.80;101710.48;95631;1176;78907;-64
2021/09/06 08:16:28;;;;;;;5.10;2.20;;;;;;;26.43;50.44;101707.17;95223;1181;82407;-72
2021/09/06 08:18:38;;;;;;;3.80;2.10;;;;;;;27.28;48.57;101711.55;95261;1181;99540;-74
2021/09/06 08:20:49;;;;;;;3.70;1.60;;;;;;;27.61;45.17;101716.02;95311;1180;88721;-65
2021/09/06 08:22:57;;;;;;;4.40;2.20;;;;;;;27.54;43.35;101714.99;95249;1183;93023;-67
2021/09/06 08:25:07;;;;;;;4.70;1.80;;;;;;;27.78;42.54;101712.65;95282;1180;79241;-65
2021/09/06 08:27:14;;;;;;;4.60;1.90;;;;;;;28.29;40.69;101712.23;95306;1183;81386;-74
2021/09/06 08:29:22;;;;;;;4.40;2.30;;;;;;;28.28;39.50;101712.79;95289;1181;97472;-71
2021/09/06 08:31:30;;;;;;;2.60;2.00;;;;;;;28.24;38.28;101714.05;95225;1183;87651;-71
2021/09/06 08:33:38;;;;;;;2.90;1.50;;;;;;;28.74;37.13;101713.17;95241;1183;95244;-77
2021/09/06 08:35:47;;;;;;;2.00;1.10;;;;;;;28.72;35.98;101713.45;95197;1183;78116;-72
2021/09/06 08:37:55;;;;;;;3.20;1.30;;;;;;;28.64;36.12;101711.02;95245;1182;81533;-65
2021/09/06 08:40:03;;;;;;;2.40;1.50;;;;;;;29.01;35.92;101711.34;95266;1180;98581;-65
2021/09/06 08:42:11;;;;;;;2.70;1.10;;;;;;;29.26;35.12;101710.98;95208;1182;88354;-67
2021/09/06 08:44:19;;;;;;;2.10;1.40;;;;;;;29.41;34.45;101714.40;95232;1183;94020;-66
2021/09/06 08:46:27;;;;;;;2.90;1.30;;;;;;;29.71;33.69;101714.48;95231;1184;79548;-65
2021/09/06 08:48:37;;;;;;;2.10;1.50;;;;;;;29.43;31.46;101713.88;95250;1184;82254;-68
2021/09/06 08:50:45;;;;;;;2.60;1.50;;;;;;;28.52;31.22;101709.20;95272;1183;99214;-68
2021/09/06 08:52:53;;;;;;;2.70;1.30;;;;;;;28.21;31.15;101709.42;95257;1182;87808;-70
2021/09/06 08:55:01;;;;;;;2.60;1.40;;;;;;;27.79;31.55;101713.05;95307;1180;93014;-71
2021/09/06 08:57:08;;;;;;;3.20;1.90;;;;;;;27.82;31.80;101710.17;95261;1184;78407;-68
2021/09/06 08:59:17;;;;;;;2.60;1.60;;;;;;;28.18;31.64;101708.02;95251;1180;82685;-69
2021/09/06 09:01:35;;;;;;;3.20;1.20;;;;;;;28.66;31.38;101711.13;95239;1184;98482;-68
2021/09/06 09:03:43;;;;;;;2.90;1.50;;;;;;;28.43;31.20;101706.64;95266;1180;86781;-65
2021/09/06 09:06:05;;;;;;;1.80;1.20;;;;;;;28.21;30.74;101708.03;95268;1180;94774;-64
2021/09/06 09:08:13;;;;;;;2.90;1.40;;;;;;;28.83;30.57;101708.52;95251;1181;79375;-67
2021/09/06 09:10:32;;;;;;;2.60;1.50;;;;;;;28.45;29.82;101708.87;95273;1184;82121;-68
2021/09/06 09:12:43;;;;;;;3.30;1.40;;;;;;;28.13;29.17;101709.08;95260;1180;99930;-68
2021/09/06 09:14:57;;;;;;;2.00;1.20;;;;;;;27.68;29.09;101710.30;95242;1180;86603;-65
2021/09/06 09:17:05;;;;;;;1.80;1.10;;;;;;;27.81;29.54;101712.89;95217;1183;93198;-63
2021/09/06 09:19:13;;;;;;;3.50;1.60;;;;;;;28.14;29.68;101712.96;95186;1181;78246;-66
2021/09/06 09:21:21;;;;;;;3.60;1.50;;;;;;;27.56;28.81;101713.33;95222;1183;81700;-67
2021/09/06 09:23:51;;;;;;;3.80;1.50;;;;;;;27.32;28.70;101715.00;95279;1183;97340;-67
2021/09/06 09:26:05;;;;;;;2.70;1.20;;;;;;;27.56;29.33;101715.94;95267;1184;87593;-66
2021/09/06 09:28:14;;;;;;;3.70;1.30;;;;;;;27.40;28.75;101711.63;95213;1180;94027;-64
2021/09/06 09:30:28;;;;;;;1.80;1.20;;;;;;;26.48;28.41;101712.82;95209;1180;78839;-64
2021/09/06 09:32:38;;;;;;;2.00;1.20;;;;;;;26.20;29.35;101712.03;95229;1180;82205;-64
2021/09/06 09:34:46;;;;;;;2.00;1.20;;;;;;;26.21;29.82;101713.67;95242;1180;99613;-64
2021/09/06 09:36:56;;;;;;;3.80;1.30;;;;;;;26.52;29.64;101709.70;95313;1180;87905;-67
2021/09/06 09:39:13;;;;;;;1.80;1.00;;;;;;;26.45;29.15;101702.93;95276;1180;93707;-68
2021/09/06 09:41:20;;;;;;;2.40;1.10;;;;;;;26.02;29.63;101701.50;95279;1180;78826;-70
2021/09/06 09:43:33;;;;;;;3.20;1.00;;;;;;;25.32;29.73;101699.30;95227;1180;80654;-67
2021/09/06 09:45:40;;;;;;;3.40;1.20;;;;;;;24.57;31.14;101697.42;95259;1180;99102;-68
2021/09/06 09:47:57;;;;;;;2.90;1.10;;;;;;;23.99;31.28;101691.41;95269;1180;87894;-65
2021/09/06 09:50:10;;;;;;;1.80;1.00;;;;;;;23.38;31.78;101693.27;95194;1180;93989;-64
2021/09/06 09:52:24;;;;;;;1.80;1.10;;;;;;;22.74;31.86;101688.92;95276;1180;79318;-64
2021/09/06 09:54:35;;;;;;;2.90;1.00;;;;;;;22.30;32.69;101687.21;95308;1180;80980;-68
2021/09/06 09:56:44;;;;;;;2.30;1.10;;;;;;;21.91;32.67;101683.36;95284;1180;98997;-69
2021/09/06 09:58:55;;;;;;;2.70;1.10;;;;;;;21.69;33.63;101683.30;95259;1180;87697;-66
2021/09/06 10:01:05;;;;;;;2.50;1.40;;;;;;;21.46;33.91;101684.09;95236;1180;94051;-63
2021/09/06 10:03:14;;;;;;;2.60;1.30;;;;;;;21.42;34.83;101687.14;95265;1180;79673;-68
2021/09/06 10:05:30;;;;;;;1.70;1.20;;;;;;;21.35;34.38;101686.46;95275;1180;82125;-67
2021/09/06 10:07:46;;;;;;;2.30;1.30;;;;;;;21.09;34.57;101688.17;95265;1180;97376;-67